sensor_id;sensor_type;location;lat;lon;timestamp;P1;durP1;ratioP1;P2;durP2;ratioP2
17145;SDS011;8688;54.444;18.444;2023-03-16T00:00:20;14.10;;;4.43;;
17145;SDS011;8688;54.444;18.444;2023-03-16T00:02:48;10.17;;;4.53;;
17145;SDS011;8688;54.444;18.444;2023-03-16T00:05:16;14.97;;;5.10;;
17145;SDS011;8688;54.444;18.444;2023-03-16T00:07:43;16.40;;;5.20;;
17145;SDS011;8688;54.444;18.444;2023-03-16T00:10:11;15.83;;;4.63;;
17145;SDS011;8688;54.444;18.444;2023-03-16T00:12:40;12.03;;;4.53;;
17145;SDS011;8688;54.444;18.444;2023-03-16T00:15:09;17.77;;;4.93;;
17145;SDS011;8688;54.444;18.444;2023-03-16T00:17:37;15.70;;;4.63;;
17145;SDS011;8688;54.444;18.444;2023-03-16T00:20:05;14.10;;;5.07;;
17145;SDS011;8688;54.444;18.444;2023-03-16T00:22:33;13.30;;;4.20;;
17145;SDS011;8688;54.444;18.444;2023-03-16T00:25:01;12.33;;;4.27;;
17145;SDS011;8688;54.444;18.444;2023-03-16T00:27:28;12.37;;;4.20;;
17145;SDS011;8688;54.444;18.444;2023-03-16T00:29:58;13.63;;;4.37;;
17145;SDS011;8688;54.444;18.444;2023-03-16T00:32:28;7.97;;;4.00;;
17145;SDS011;8688;54.444;18.444;2023-03-16T00:34:57;14.90;;;4.13;;
17145;SDS011;8688;54.444;18.444;2023-03-16T00:37:26;13.50;;;3.97;;
17145;SDS011;8688;54.444;18.444;2023-03-16T00:39:54;11.27;;;3.67;;
17145;SDS011;8688;54.444;18.444;2023-03-16T00:42:23;9.70;;;3.90;;
17145;SDS011;8688;54.444;18.444;2023-03-16T00:44:52;10.20;;;3.80;;
17145;SDS011;8688;54.444;18.444;2023-03-16T00:47:23;7.87;;;4.00;;
17145;SDS011;8688;54.444;18.444;2023-03-16T00:49:52;11.33;;;4.07;;
17145;SDS011;8688;54.444;18.444;2023-03-16T00:52:21;10.17;;;4.30;;
17145;SDS011;8688;54.444;18.444;2023-03-16T00:54:49;12.67;;;4.13;;
17145;SDS011;8688;54.444;18.444;2023-03-16T00:57:18;10.13;;;4.03;;
17145;SDS011;8688;54.444;18.444;2023-03-16T00:59:47;9.90;;;4.30;;
17145;SDS011;8688;54.444;18.444;2023-03-16T01:02:16;8.67;;;3.77;;
17145;SDS011;8688;54.444;18.444;2023-03-16T01:04:49;12.07;;;4.67;;
17145;SDS011;8688;54.444;18.444;2023-03-16T01:07:18;11.83;;;4.33;;
17145;SDS011;8688;54.444;18.444;2023-03-16T01:09:47;7.80;;;3.10;;
17145;SDS011;8688;54.444;18.444;2023-03-16T01:12:15;6.70;;;3.53;;
17145;SDS011;8688;54.444;18.444;2023-03-16T01:14:44;7.90;;;3.80;;
17145;SDS011;8688;54.444;18.444;2023-03-16T01:17:12;10.57;;;3.70;;
17145;SDS011;8688;54.444;18.444;2023-03-16T01:19:42;9.27;;;3.30;;
17145;SDS011;8688;54.444;18.444;2023-03-16T01:22:12;7.57;;;3.00;;
17145;SDS011;8688;54.444;18.444;2023-03-16T01:24:41;7.53;;;3.30;;
17145;SDS011;8688;54.444;18.444;2023-03-16T01:27:09;9.87;;;3.40;;
17145;SDS011;8688;54.444;18.444;2023-03-16T01:29:38;11.07;;;3.80;;
17145;SDS011;8688;54.444;18.444;2023-03-16T01:32:07;7.93;;;3.20;;
17145;SDS011;8688;54.444;18.444;2023-03-16T01:34:36;9.33;;;3.37;;
17145;SDS011;8688;54.444;18.444;2023-03-16T01:37:03;11.40;;;3.73;;
17145;SDS011;8688;54.444;18.444;2023-03-16T01:39:32;8.57;;;3.63;;
17145;SDS011;8688;54.444;18.444;2023-03-16T01:42:00;6.23;;;3.07;;
17145;SDS011;8688;54.444;18.444;2023-03-16T01:44:27;9.83;;;3.87;;
17145;SDS011;8688;54.444;18.444;2023-03-16T01:46:59;8.63;;;3.20;;
17145;SDS011;8688;54.444;18.444;2023-03-16T01:49:27;6.67;;;3.33;;
17145;SDS011;8688;54.444;18.444;2023-03-16T01:51:58;10.23;;;3.40;;
17145;SDS011;8688;54.444;18.444;2023-03-16T01:54:29;10.77;;;3.67;;
17145;SDS011;8688;54.444;18.444;2023-03-16T01:57:01;9.30;;;4.10;;
17145;SDS011;8688;54.444;18.444;2023-03-16T01:59:34;7.30;;;3.30;;
17145;SDS011;8688;54.444;18.444;2023-03-16T02:02:05;12.83;;;3.13;;
17145;SDS011;8688;54.444;18.444;2023-03-16T02:04:37;7.00;;;3.87;;
17145;SDS011;8688;54.444;18.444;2023-03-16T02:07:10;9.40;;;3.20;;
17145;SDS011;8688;54.444;18.444;2023-03-16T02:09:41;8.17;;;3.57;;
17145;SDS011;8688;54.444;18.444;2023-03-16T02:12:13;9.20;;;3.80;;
17145;SDS011;8688;54.444;18.444;2023-03-16T02:14:43;9.77;;;3.33;;
17145;SDS011;8688;54.444;18.444;2023-03-16T02:17:11;8.67;;;3.23;;
17145;SDS011;8688;54.444;18.444;2023-03-16T02:19:42;10.03;;;3.20;;
17145;SDS011;8688;54.444;18.444;2023-03-16T02:22:18;7.73;;;2.83;;
17145;SDS011;8688;54.444;18.444;2023-03-16T02:24:49;8.80;;;3.53;;
17145;SDS011;8688;54.444;18.444;2023-03-16T02:27:20;9.20;;;3.30;;
17145;SDS011;8688;54.444;18.444;2023-03-16T02:29:55;9.77;;;3.07;;
17145;SDS011;8688;54.444;18.444;2023-03-16T02:32:28;9.60;;;3.20;;
17145;SDS011;8688;54.444;18.444;2023-03-16T02:34:58;8.40;;;3.07;;
17145;SDS011;8688;54.444;18.444;2023-03-16T02:37:27;9.67;;;2.97;;
17145;SDS011;8688;54.444;18.444;2023-03-16T02:39:58;6.77;;;3.17;;
17145;SDS011;8688;54.444;18.444;2023-03-16T02:42:27;9.03;;;3.53;;
17145;SDS011;8688;54.444;18.444;2023-03-16T02:44:57;7.07;;;3.37;;
17145;SDS011;8688;54.444;18.444;2023-03-16T02:47:29;7.47;;;3.37;;
17145;SDS011;8688;54.444;18.444;2023-03-16T02:50:01;9.03;;;3.10;;
17145;SDS011;8688;54.444;18.444;2023-03-16T02:52:31;6.07;;;2.83;;
17145;SDS011;8688;54.444;18.444;2023-03-16T02:54:59;10.67;;;3.10;;
17145;SDS011;8688;54.444;18.444;2023-03-16T02:57:27;6.33;;;3.03;;
17145;SDS011;8688;54.444;18.444;2023-03-16T02:59:57;7.33;;;2.80;;
17145;SDS011;8688;54.444;18.444;2023-03-16T03:02:25;5.53;;;2.90;;
17145;SDS011;8688;54.444;18.444;2023-03-16T03:04:53;8.00;;;3.17;;
17145;SDS011;8688;54.444;18.444;2023-03-16T03:07:20;6.77;;;3.20;;
17145;SDS011;8688;54.444;18.444;2023-03-16T03:09:55;6.90;;;3.17;;
17145;SDS011;8688;54.444;18.444;2023-03-16T03:12:23;7.30;;;3.37;;
17145;SDS011;8688;54.444;18.444;2023-03-16T03:14:51;6.83;;;3.07;;
17145;SDS011;8688;54.444;18.444;2023-03-16T03:17:20;10.47;;;3.40;;
17145;SDS011;8688;54.444;18.444;2023-03-16T03:19:54;9.87;;;3.43;;
17145;SDS011;8688;54.444;18.444;2023-03-16T03:22:21;7.93;;;3.60;;
17145;SDS011;8688;54.444;18.444;2023-03-16T03:24:50;7.13;;;3.23;;
17145;SDS011;8688;54.444;18.444;2023-03-16T03:27:18;10.00;;;3.10;;
17145;SDS011;8688;54.444;18.444;2023-03-16T03:29:46;11.43;;;3.50;;
17145;SDS011;8688;54.444;18.444;2023-03-16T03:32:14;10.90;;;3.37;;
17145;SDS011;8688;54.444;18.444;2023-03-16T03:34:43;7.73;;;3.33;;
17145;SDS011;8688;54.444;18.444;2023-03-16T03:37:10;8.50;;;3.00;;
17145;SDS011;8688;54.444;18.444;2023-03-16T03:39:38;7.33;;;3.20;;
17145;SDS011;8688;54.444;18.444;2023-03-16T03:42:05;5.97;;;3.37;;
17145;SDS011;8688;54.444;18.444;2023-03-16T03:44:33;9.53;;;3.50;;
17145;SDS011;8688;54.444;18.444;2023-03-16T03:47:01;5.87;;;3.40;;
17145;SDS011;8688;54.444;18.444;2023-03-16T03:49:30;9.83;;;3.93;;
17145;SDS011;8688;54.444;18.444;2023-03-16T03:51:59;8.57;;;3.43;;
17145;SDS011;8688;54.444;18.444;2023-03-16T03:54:29;8.97;;;3.67;;
17145;SDS011;8688;54.444;18.444;2023-03-16T03:56:56;7.27;;;3.50;;
17145;SDS011;8688;54.444;18.444;2023-03-16T03:59:24;8.50;;;3.40;;
17145;SDS011;8688;54.444;18.444;2023-03-16T04:01:51;7.93;;;3.30;;
17145;SDS011;8688;54.444;18.444;2023-03-16T04:04:19;9.10;;;3.17;;
17145;SDS011;8688;54.444;18.444;2023-03-16T04:06:46;7.00;;;3.20;;
17145;SDS011;8688;54.444;18.444;2023-03-16T04:09:16;10.13;;;3.47;;
17145;SDS011;8688;54.444;18.444;2023-03-16T04:11:44;7.90;;;3.60;;
17145;SDS011;8688;54.444;18.444;2023-03-16T04:14:11;6.43;;;3.57;;
17145;SDS011;8688;54.444;18.444;2023-03-16T04:16:39;10.03;;;3.27;;
17145;SDS011;8688;54.444;18.444;2023-03-16T04:19:08;6.77;;;2.93;;
17145;SDS011;8688;54.444;18.444;2023-03-16T04:21:36;9.03;;;3.47;;
17145;SDS011;8688;54.444;18.444;2023-03-16T04:24:03;9.63;;;3.77;;
17145;SDS011;8688;54.444;18.444;2023-03-16T04:26:33;8.43;;;3.60;;
17145;SDS011;8688;54.444;18.444;2023-03-16T04:29:00;7.60;;;3.70;;
17145;SDS011;8688;54.444;18.444;2023-03-16T04:31:29;9.03;;;3.80;;
17145;SDS011;8688;54.444;18.444;2023-03-16T04:33:56;8.07;;;3.93;;
17145;SDS011;8688;54.444;18.444;2023-03-16T04:36:23;9.37;;;3.90;;
17145;SDS011;8688;54.444;18.444;2023-03-16T04:38:51;7.47;;;3.70;;
17145;SDS011;8688;54.444;18.444;2023-03-16T04:41:19;10.87;;;3.87;;
17145;SDS011;8688;54.444;18.444;2023-03-16T04:43:48;8.40;;;4.00;;
17145;SDS011;8688;54.444;18.444;2023-03-16T04:46:15;8.40;;;3.87;;
17145;SDS011;8688;54.444;18.444;2023-03-16T04:48:43;9.90;;;4.20;;
17145;SDS011;8688;54.444;18.444;2023-03-16T04:51:10;11.17;;;4.37;;
17145;SDS011;8688;54.444;18.444;2023-03-16T04:53:38;8.27;;;4.00;;
17145;SDS011;8688;54.444;18.444;2023-03-16T04:56:06;10.83;;;4.40;;
17145;SDS011;8688;54.444;18.444;2023-03-16T04:58:34;11.30;;;4.37;;
17145;SDS011;8688;54.444;18.444;2023-03-16T05:01:03;6.70;;;4.17;;
17145;SDS011;8688;54.444;18.444;2023-03-16T05:03:31;9.87;;;4.27;;
17145;SDS011;8688;54.444;18.444;2023-03-16T05:05:59;11.97;;;3.90;;
17145;SDS011;8688;54.444;18.444;2023-03-16T05:08:26;11.10;;;4.37;;
17145;SDS011;8688;54.444;18.444;2023-03-16T05:10:55;9.27;;;3.83;;
17145;SDS011;8688;54.444;18.444;2023-03-16T05:13:23;9.83;;;3.83;;
17145;SDS011;8688;54.444;18.444;2023-03-16T05:15:50;11.10;;;4.60;;
17145;SDS011;8688;54.444;18.444;2023-03-16T05:18:20;7.97;;;4.03;;
17145;SDS011;8688;54.444;18.444;2023-03-16T05:20:49;8.53;;;4.13;;
17145;SDS011;8688;54.444;18.444;2023-03-16T05:23:17;11.70;;;3.90;;
17145;SDS011;8688;54.444;18.444;2023-03-16T05:25:45;11.57;;;4.13;;
17145;SDS011;8688;54.444;18.444;2023-03-16T05:28:13;11.03;;;4.23;;
17145;SDS011;8688;54.444;18.444;2023-03-16T05:30:40;15.57;;;4.50;;
17145;SDS011;8688;54.444;18.444;2023-03-16T05:33:09;10.00;;;4.63;;
17145;SDS011;8688;54.444;18.444;2023-03-16T05:35:38;11.80;;;4.43;;
17145;SDS011;8688;54.444;18.444;2023-03-16T05:38:07;10.80;;;4.73;;
17145;SDS011;8688;54.444;18.444;2023-03-16T05:40:35;11.93;;;4.47;;
17145;SDS011;8688;54.444;18.444;2023-03-16T05:43:02;12.77;;;4.70;;
17145;SDS011;8688;54.444;18.444;2023-03-16T05:45:30;12.27;;;5.23;;
17145;SDS011;8688;54.444;18.444;2023-03-16T05:47:58;11.80;;;4.87;;
17145;SDS011;8688;54.444;18.444;2023-03-16T05:50:25;11.07;;;4.50;;
17145;SDS011;8688;54.444;18.444;2023-03-16T05:52:54;9.07;;;4.67;;
17145;SDS011;8688;54.444;18.444;2023-03-16T05:55:22;16.63;;;5.27;;
17145;SDS011;8688;54.444;18.444;2023-03-16T05:57:49;13.50;;;5.67;;
17145;SDS011;8688;54.444;18.444;2023-03-16T06:00:17;15.00;;;5.10;;
17145;SDS011;8688;54.444;18.444;2023-03-16T06:02:46;11.87;;;5.03;;
17145;SDS011;8688;54.444;18.444;2023-03-16T06:05:15;10.83;;;4.57;;
17145;SDS011;8688;54.444;18.444;2023-03-16T06:07:44;12.80;;;5.60;;
17145;SDS011;8688;54.444;18.444;2023-03-16T06:10:13;13.03;;;5.80;;
17145;SDS011;8688;54.444;18.444;2023-03-16T06:12:40;14.50;;;5.57;;
17145;SDS011;8688;54.444;18.444;2023-03-16T06:15:09;12.33;;;5.43;;
17145;SDS011;8688;54.444;18.444;2023-03-16T06:17:37;17.27;;;5.63;;
17145;SDS011;8688;54.444;18.444;2023-03-16T06:20:06;17.47;;;5.30;;
17145;SDS011;8688;54.444;18.444;2023-03-16T06:22:36;11.53;;;4.57;;
17145;SDS011;8688;54.444;18.444;2023-03-16T06:25:04;14.70;;;4.53;;
17145;SDS011;8688;54.444;18.444;2023-03-16T06:27:34;10.43;;;4.17;;
17145;SDS011;8688;54.444;18.444;2023-03-16T06:30:01;12.17;;;3.83;;
17145;SDS011;8688;54.444;18.444;2023-03-16T06:32:30;9.73;;;3.43;;
17145;SDS011;8688;54.444;18.444;2023-03-16T06:34:58;12.10;;;4.30;;
17145;SDS011;8688;54.444;18.444;2023-03-16T06:37:26;8.73;;;3.53;;
17145;SDS011;8688;54.444;18.444;2023-03-16T06:39:54;10.07;;;3.50;;
17145;SDS011;8688;54.444;18.444;2023-03-16T06:42:21;9.00;;;3.13;;
17145;SDS011;8688;54.444;18.444;2023-03-16T06:44:51;12.23;;;3.77;;
17145;SDS011;8688;54.444;18.444;2023-03-16T06:47:18;12.90;;;3.90;;
17145;SDS011;8688;54.444;18.444;2023-03-16T06:49:46;14.73;;;3.83;;
17145;SDS011;8688;54.444;18.444;2023-03-16T06:52:15;12.27;;;4.13;;
17145;SDS011;8688;54.444;18.444;2023-03-16T06:54:43;12.03;;;3.80;;
17145;SDS011;8688;54.444;18.444;2023-03-16T06:57:10;11.90;;;3.23;;
17145;SDS011;8688;54.444;18.444;2023-03-16T06:59:38;9.23;;;3.63;;
17145;SDS011;8688;54.444;18.444;2023-03-16T07:02:08;9.30;;;3.33;;
17145;SDS011;8688;54.444;18.444;2023-03-16T07:04:38;7.03;;;3.50;;
17145;SDS011;8688;54.444;18.444;2023-03-16T07:07:06;9.57;;;3.40;;
17145;SDS011;8688;54.444;18.444;2023-03-16T07:09:34;10.40;;;4.00;;
17145;SDS011;8688;54.444;18.444;2023-03-16T07:12:01;12.73;;;3.67;;
17145;SDS011;8688;54.444;18.444;2023-03-16T07:14:29;14.40;;;3.90;;
17145;SDS011;8688;54.444;18.444;2023-03-16T07:16:57;9.20;;;3.43;;
17145;SDS011;8688;54.444;18.444;2023-03-16T07:19:26;8.73;;;3.97;;
17145;SDS011;8688;54.444;18.444;2023-03-16T07:21:54;10.40;;;3.43;;
17145;SDS011;8688;54.444;18.444;2023-03-16T07:24:21;12.43;;;3.37;;
17145;SDS011;8688;54.444;18.444;2023-03-16T07:26:49;8.40;;;3.40;;
17145;SDS011;8688;54.444;18.444;2023-03-16T07:29:17;9.93;;;3.40;;
17145;SDS011;8688;54.444;18.444;2023-03-16T07:31:44;11.20;;;3.20;;
17145;SDS011;8688;54.444;18.444;2023-03-16T07:34:12;8.77;;;3.20;;
17145;SDS011;8688;54.444;18.444;2023-03-16T07:36:41;8.43;;;3.53;;
17145;SDS011;8688;54.444;18.444;2023-03-16T07:39:09;9.93;;;3.60;;
17145;SDS011;8688;54.444;18.444;2023-03-16T07:41:38;11.27;;;3.40;;
17145;SDS011;8688;54.444;18.444;2023-03-16T07:44:05;8.83;;;3.50;;
17145;SDS011;8688;54.444;18.444;2023-03-16T07:46:33;7.93;;;3.53;;
17145;SDS011;8688;54.444;18.444;2023-03-16T07:49:00;11.83;;;3.90;;
17145;SDS011;8688;54.444;18.444;2023-03-16T07:51:28;10.13;;;3.37;;
17145;SDS011;8688;54.444;18.444;2023-03-16T07:53:57;8.80;;;3.40;;
17145;SDS011;8688;54.444;18.444;2023-03-16T07:56:24;10.73;;;3.47;;
17145;SDS011;8688;54.444;18.444;2023-03-16T07:58:52;10.10;;;3.33;;
17145;SDS011;8688;54.444;18.444;2023-03-16T08:01:19;9.03;;;3.60;;
17145;SDS011;8688;54.444;18.444;2023-03-16T08:03:47;9.70;;;3.50;;
17145;SDS011;8688;54.444;18.444;2023-03-16T08:06:15;12.60;;;3.40;;
17145;SDS011;8688;54.444;18.444;2023-03-16T08:08:43;9.47;;;3.50;;
17145;SDS011;8688;54.444;18.444;2023-03-16T08:11:12;5.70;;;2.93;;
17145;SDS011;8688;54.444;18.444;2023-03-16T08:13:40;6.70;;;2.93;;
17145;SDS011;8688;54.444;18.444;2023-03-16T08:16:08;9.57;;;3.30;;
17145;SDS011;8688;54.444;18.444;2023-03-16T08:18:37;8.43;;;3.03;;
17145;SDS011;8688;54.444;18.444;2023-03-16T08:21:06;8.80;;;3.07;;
17145;SDS011;8688;54.444;18.444;2023-03-16T08:23:33;7.80;;;2.87;;
17145;SDS011;8688;54.444;18.444;2023-03-16T08:26:01;7.33;;;3.10;;
17145;SDS011;8688;54.444;18.444;2023-03-16T08:28:34;7.40;;;2.90;;
17145;SDS011;8688;54.444;18.444;2023-03-16T08:31:02;7.23;;;2.80;;
17145;SDS011;8688;54.444;18.444;2023-03-16T08:33:33;6.97;;;2.90;;
17145;SDS011;8688;54.444;18.444;2023-03-16T08:36:01;11.40;;;2.97;;
17145;SDS011;8688;54.444;18.444;2023-03-16T08:38:31;7.67;;;2.60;;
17145;SDS011;8688;54.444;18.444;2023-03-16T08:40:59;7.17;;;2.93;;
17145;SDS011;8688;54.444;18.444;2023-03-16T08:43:26;9.43;;;2.90;;
17145;SDS011;8688;54.444;18.444;2023-03-16T08:45:55;9.27;;;3.43;;
17145;SDS011;8688;54.444;18.444;2023-03-16T08:48:23;8.43;;;3.17;;
17145;SDS011;8688;54.444;18.444;2023-03-16T08:50:50;7.60;;;3.40;;
17145;SDS011;8688;54.444;18.444;2023-03-16T08:53:18;8.33;;;3.20;;
17145;SDS011;8688;54.444;18.444;2023-03-16T08:55:46;5.43;;;2.07;;
17145;SDS011;8688;54.444;18.444;2023-03-16T08:58:14;6.20;;;3.07;;
17145;SDS011;8688;54.444;18.444;2023-03-16T09:00:41;10.20;;;3.30;;
17145;SDS011;8688;54.444;18.444;2023-03-16T09:03:10;7.73;;;3.17;;
17145;SDS011;8688;54.444;18.444;2023-03-16T09:05:38;7.67;;;3.07;;
17145;SDS011;8688;54.444;18.444;2023-03-16T09:08:06;9.73;;;3.50;;
17145;SDS011;8688;54.444;18.444;2023-03-16T09:10:34;9.47;;;4.87;;
17145;SDS011;8688;54.444;18.444;2023-03-16T09:13:02;10.37;;;3.97;;
17145;SDS011;8688;54.444;18.444;2023-03-16T09:15:29;4.30;;;2.60;;
17145;SDS011;8688;54.444;18.444;2023-03-16T09:17:57;5.03;;;2.77;;
17145;SDS011;8688;54.444;18.444;2023-03-16T09:20:26;6.17;;;2.47;;
17145;SDS011;8688;54.444;18.444;2023-03-16T09:22:54;6.97;;;2.70;;
17145;SDS011;8688;54.444;18.444;2023-03-16T09:25:22;6.87;;;2.70;;
17145;SDS011;8688;54.444;18.444;2023-03-16T09:27:50;10.43;;;3.53;;
17145;SDS011;8688;54.444;18.444;2023-03-16T09:30:18;15.73;;;4.73;;
17145;SDS011;8688;54.444;18.444;2023-03-16T09:32:45;5.83;;;3.20;;
17145;SDS011;8688;54.444;18.444;2023-03-16T09:35:14;7.03;;;3.00;;
17145;SDS011;8688;54.444;18.444;2023-03-16T09:37:45;6.80;;;2.57;;
17145;SDS011;8688;54.444;18.444;2023-03-16T09:40:20;5.40;;;1.70;;
17145;SDS011;8688;54.444;18.444;2023-03-16T09:42:51;4.67;;;2.37;;
17145;SDS011;8688;54.444;18.444;2023-03-16T09:45:30;7.57;;;2.43;;
17145;SDS011;8688;54.444;18.444;2023-03-16T09:48:03;6.13;;;2.10;;
17145;SDS011;8688;54.444;18.444;2023-03-16T09:50:33;8.30;;;2.30;;
17145;SDS011;8688;54.444;18.444;2023-03-16T09:53:07;4.80;;;3.00;;
17145;SDS011;8688;54.444;18.444;2023-03-16T09:55:43;9.57;;;5.10;;
17145;SDS011;8688;54.444;18.444;2023-03-16T09:58:16;34.00;;;4.67;;
17145;SDS011;8688;54.444;18.444;2023-03-16T10:00:47;13.13;;;5.53;;
17145;SDS011;8688;54.444;18.444;2023-03-16T10:03:27;10.80;;;4.37;;
17145;SDS011;8688;54.444;18.444;2023-03-16T10:06:03;7.60;;;3.57;;
17145;SDS011;8688;54.444;18.444;2023-03-16T10:08:34;7.80;;;2.90;;
17145;SDS011;8688;54.444;18.444;2023-03-16T10:11:11;6.87;;;2.47;;
17145;SDS011;8688;54.444;18.444;2023-03-16T10:13:49;12.07;;;3.20;;
17145;SDS011;8688;54.444;18.444;2023-03-16T10:16:20;13.97;;;3.43;;
17145;SDS011;8688;54.444;18.444;2023-03-16T10:18:52;37.50;;;14.53;;
17145;SDS011;8688;54.444;18.444;2023-03-16T10:21:25;31.50;;;13.43;;
17145;SDS011;8688;54.444;18.444;2023-03-16T10:23:55;8.93;;;4.60;;
17145;SDS011;8688;54.444;18.444;2023-03-16T10:26:27;8.77;;;3.73;;
17145;SDS011;8688;54.444;18.444;2023-03-16T10:29:02;30.00;;;16.90;;
17145;SDS011;8688;54.444;18.444;2023-03-16T10:31:31;13.20;;;6.93;;
17145;SDS011;8688;54.444;18.444;2023-03-16T10:34:04;14.77;;;9.43;;
17145;SDS011;8688;54.444;18.444;2023-03-16T10:36:33;8.93;;;4.57;;
17145;SDS011;8688;54.444;18.444;2023-03-16T10:39:04;35.17;;;5.30;;
17145;SDS011;8688;54.444;18.444;2023-03-16T10:41:33;7.10;;;3.40;;
17145;SDS011;8688;54.444;18.444;2023-03-16T10:44:05;5.53;;;1.97;;
17145;SDS011;8688;54.444;18.444;2023-03-16T10:46:37;11.43;;;3.67;;
17145;SDS011;8688;54.444;18.444;2023-03-16T10:49:18;24.40;;;4.40;;
17145;SDS011;8688;54.444;18.444;2023-03-16T10:51:50;7.90;;;2.73;;
17145;SDS011;8688;54.444;18.444;2023-03-16T10:54:25;5.83;;;2.40;;
17145;SDS011;8688;54.444;18.444;2023-03-16T10:56:55;6.03;;;2.67;;
17145;SDS011;8688;54.444;18.444;2023-03-16T10:59:29;5.10;;;1.90;;
17145;SDS011;8688;54.444;18.444;2023-03-16T11:01:59;4.63;;;2.07;;
17145;SDS011;8688;54.444;18.444;2023-03-16T11:04:29;5.60;;;2.17;;
17145;SDS011;8688;54.444;18.444;2023-03-16T11:06:57;4.47;;;2.27;;
17145;SDS011;8688;54.444;18.444;2023-03-16T11:09:31;4.43;;;1.70;;
17145;SDS011;8688;54.444;18.444;2023-03-16T11:12:00;22.37;;;3.10;;
17145;SDS011;8688;54.444;18.444;2023-03-16T11:14:41;29.60;;;4.37;;
17145;SDS011;8688;54.444;18.444;2023-03-16T11:17:11;13.90;;;2.93;;
17145;SDS011;8688;54.444;18.444;2023-03-16T11:19:44;25.60;;;3.20;;
17145;SDS011;8688;54.444;18.444;2023-03-16T11:22:17;22.60;;;3.60;;
17145;SDS011;8688;54.444;18.444;2023-03-16T11:24:49;12.73;;;2.97;;
17145;SDS011;8688;54.444;18.444;2023-03-16T11:27:21;8.20;;;2.53;;
17145;SDS011;8688;54.444;18.444;2023-03-16T11:30:00;42.03;;;5.30;;
17145;SDS011;8688;54.444;18.444;2023-03-16T11:32:34;27.30;;;3.97;;
17145;SDS011;8688;54.444;18.444;2023-03-16T11:35:10;9.37;;;2.63;;
17145;SDS011;8688;54.444;18.444;2023-03-16T11:37:42;7.20;;;2.80;;
17145;SDS011;8688;54.444;18.444;2023-03-16T11:40:34;5.00;;;1.90;;
17145;SDS011;8688;54.444;18.444;2023-03-16T11:43:24;12.50;;;2.50;;
17145;SDS011;8688;54.444;18.444;2023-03-16T11:46:09;32.53;;;9.73;;
17145;SDS011;8688;54.444;18.444;2023-03-16T11:48:40;4.47;;;2.00;;
17145;SDS011;8688;54.444;18.444;2023-03-16T11:51:14;6.37;;;1.67;;
17145;SDS011;8688;54.444;18.444;2023-03-16T11:53:57;4.67;;;1.50;;
17145;SDS011;8688;54.444;18.444;2023-03-16T11:56:37;3.50;;;1.30;;
17145;SDS011;8688;54.444;18.444;2023-03-16T11:59:25;1.90;;;0.83;;
17145;SDS011;8688;54.444;18.444;2023-03-16T12:02:05;2.33;;;0.93;;
17145;SDS011;8688;54.444;18.444;2023-03-16T12:05:24;1.83;;;1.30;;
17145;SDS011;8688;54.444;18.444;2023-03-16T12:08:17;2.03;;;1.30;;
17145;SDS011;8688;54.444;18.444;2023-03-16T12:11:04;2.07;;;1.40;;
17145;SDS011;8688;54.444;18.444;2023-03-16T12:13:42;2.70;;;1.20;;
17145;SDS011;8688;54.444;18.444;2023-03-16T12:16:20;3.50;;;1.60;;
17145;SDS011;8688;54.444;18.444;2023-03-16T12:18:53;2.13;;;1.50;;
17145;SDS011;8688;54.444;18.444;2023-03-16T12:21:27;3.40;;;1.27;;
17145;SDS011;8688;54.444;18.444;2023-03-16T12:23:58;1.33;;;0.80;;
17145;SDS011;8688;54.444;18.444;2023-03-16T12:26:30;3.67;;;0.93;;
17145;SDS011;8688;54.444;18.444;2023-03-16T12:29:01;4.23;;;1.20;;
17145;SDS011;8688;54.444;18.444;2023-03-16T12:31:41;2.23;;;1.07;;
17145;SDS011;8688;54.444;18.444;2023-03-16T12:34:16;2.00;;;1.00;;
17145;SDS011;8688;54.444;18.444;2023-03-16T12:42:38;1.20;;;1.00;;
17145;SDS011;8688;54.444;18.444;2023-03-16T12:45:21;3.27;;;1.10;;
17145;SDS011;8688;54.444;18.444;2023-03-16T12:47:57;1.57;;;0.80;;
17145;SDS011;8688;54.444;18.444;2023-03-16T12:50:30;2.10;;;1.10;;
17145;SDS011;8688;54.444;18.444;2023-03-16T12:52:58;5.67;;;0.83;;
17145;SDS011;8688;54.444;18.444;2023-03-16T12:55:26;3.43;;;0.90;;
17145;SDS011;8688;54.444;18.444;2023-03-16T12:58:09;4.13;;;1.13;;
17145;SDS011;8688;54.444;18.444;2023-03-16T13:00:39;1.67;;;0.83;;
17145;SDS011;8688;54.444;18.444;2023-03-16T13:03:10;3.17;;;1.10;;
17145;SDS011;8688;54.444;18.444;2023-03-16T13:05:43;2.80;;;1.10;;
17145;SDS011;8688;54.444;18.444;2023-03-16T13:08:13;4.10;;;1.43;;
17145;SDS011;8688;54.444;18.444;2023-03-16T13:10:43;3.03;;;1.10;;
17145;SDS011;8688;54.444;18.444;2023-03-16T13:13:26;3.20;;;0.90;;
17145;SDS011;8688;54.444;18.444;2023-03-16T13:16:02;5.17;;;1.80;;
17145;SDS011;8688;54.444;18.444;2023-03-16T13:18:34;3.03;;;1.30;;
17145;SDS011;8688;54.444;18.444;2023-03-16T13:21:16;5.17;;;1.90;;
17145;SDS011;8688;54.444;18.444;2023-03-16T13:23:50;4.80;;;1.97;;
17145;SDS011;8688;54.444;18.444;2023-03-16T13:26:25;6.80;;;2.13;;
17145;SDS011;8688;54.444;18.444;2023-03-16T13:29:05;5.33;;;1.50;;
17145;SDS011;8688;54.444;18.444;2023-03-16T13:31:47;1.73;;;0.90;;
17145;SDS011;8688;54.444;18.444;2023-03-16T13:34:18;3.77;;;1.30;;
17145;SDS011;8688;54.444;18.444;2023-03-16T13:36:49;4.03;;;1.23;;
17145;SDS011;8688;54.444;18.444;2023-03-16T13:39:21;7.03;;;1.80;;
17145;SDS011;8688;54.444;18.444;2023-03-16T13:41:54;7.53;;;2.40;;
17145;SDS011;8688;54.444;18.444;2023-03-16T13:44:24;6.50;;;1.40;;
17145;SDS011;8688;54.444;18.444;2023-03-16T13:46:53;5.77;;;1.23;;
17145;SDS011;8688;54.444;18.444;2023-03-16T13:49:21;5.97;;;1.17;;
17145;SDS011;8688;54.444;18.444;2023-03-16T13:51:49;3.93;;;1.40;;
17145;SDS011;8688;54.444;18.444;2023-03-16T13:54:21;7.37;;;1.30;;
17145;SDS011;8688;54.444;18.444;2023-03-16T13:56:51;3.73;;;1.37;;
17145;SDS011;8688;54.444;18.444;2023-03-16T13:59:21;4.20;;;0.80;;
17145;SDS011;8688;54.444;18.444;2023-03-16T14:01:55;5.93;;;1.10;;
17145;SDS011;8688;54.444;18.444;2023-03-16T14:04:26;4.60;;;1.50;;
17145;SDS011;8688;54.444;18.444;2023-03-16T14:06:56;8.73;;;1.10;;
17145;SDS011;8688;54.444;18.444;2023-03-16T14:09:25;3.40;;;1.13;;
17145;SDS011;8688;54.444;18.444;2023-03-16T14:11:55;7.87;;;1.97;;
17145;SDS011;8688;54.444;18.444;2023-03-16T14:14:24;3.90;;;1.67;;
17145;SDS011;8688;54.444;18.444;2023-03-16T14:17:00;7.60;;;3.30;;
17145;SDS011;8688;54.444;18.444;2023-03-16T14:19:29;8.23;;;1.57;;
17145;SDS011;8688;54.444;18.444;2023-03-16T14:22:09;4.20;;;1.20;;
17145;SDS011;8688;54.444;18.444;2023-03-16T14:24:41;4.47;;;2.10;;
17145;SDS011;8688;54.444;18.444;2023-03-16T14:27:18;5.63;;;1.13;;
17145;SDS011;8688;54.444;18.444;2023-03-16T14:29:58;4.37;;;1.10;;
17145;SDS011;8688;54.444;18.444;2023-03-16T14:32:29;2.53;;;0.70;;
17145;SDS011;8688;54.444;18.444;2023-03-16T14:35:02;3.97;;;1.20;;
17145;SDS011;8688;54.444;18.444;2023-03-16T14:37:39;5.97;;;1.20;;
17145;SDS011;8688;54.444;18.444;2023-03-16T14:40:17;3.77;;;1.40;;
17145;SDS011;8688;54.444;18.444;2023-03-16T14:42:48;6.80;;;1.30;;
17145;SDS011;8688;54.444;18.444;2023-03-16T14:45:16;6.03;;;1.17;;
17145;SDS011;8688;54.444;18.444;2023-03-16T14:47:46;3.40;;;1.13;;
17145;SDS011;8688;54.444;18.444;2023-03-16T14:50:21;6.27;;;0.83;;
17145;SDS011;8688;54.444;18.444;2023-03-16T14:52:49;3.37;;;0.77;;
17145;SDS011;8688;54.444;18.444;2023-03-16T14:55:20;2.57;;;1.00;;
17145;SDS011;8688;54.444;18.444;2023-03-16T14:57:49;2.53;;;0.43;;
17145;SDS011;8688;54.444;18.444;2023-03-16T15:00:18;3.23;;;0.80;;
17145;SDS011;8688;54.444;18.444;2023-03-16T15:02:51;3.67;;;0.90;;
17145;SDS011;8688;54.444;18.444;2023-03-16T15:05:23;3.93;;;0.97;;
17145;SDS011;8688;54.444;18.444;2023-03-16T15:07:57;7.07;;;1.50;;